Time;durP1;ratioP1;P1;durP2;ratioP2;P2;SDS_P1;SDS_P2;PMS_P1;PMS_P2;Temp;Humidity;BMP_temperature;BMP_pressure;BME280_temperature;BME280_humidity;BME280_pressure;Samples;Min_cycle;Max_cycle;Signal;HPM_P1;HPM_P2
2023/05/06 00:00:08;;;;;;;16.25;11.50;;;;;;;;;;5055680;28;20049;-74
2023/05/06 00:02:35;;;;;;;15.27;11.18;;;;;;;;;;5060075;28;20535;-74
2023/05/06 00:05:02;;;;;;;14.05;10.18;;;;;;;;;;5056696;28;20375;-74
2023/05/06 00:07:28;;;;;;;17.10;11.65;;;;;;;;;;5037135;28;20052;-74
2023/05/06 00:09:54;;;;;;;14.77;10.57;;;;;;;;;;5075179;28;20037;-74
2023/05/06 00:12:20;;;;;;;13.15;10.38;;;;;;;;;;5057676;28;20048;-74
2023/05/06 00:14:46;;;;;;;14.95;11.00;;;;;;;;;;5061467;28;20045;-74
2023/05/06 00:17:12;;;;;;;13.65;10.20;;;;;;;;;;5055663;28;20495;-74
2023/05/06 00:19:38;;;;;;;15.07;10.52;;;;;;;;;;5038436;28;20475;-74
2023/05/06 00:22:05;;;;;;;16.60;10.95;;;;;;;;;;5041445;28;20040;-74
2023/05/06 00:24:31;;;;;;;15.27;10.18;;;;;;;;;;5040879;28;20057;-74
2023/05/06 00:26:57;;;;;;;14.70;10.50;;;;;;;;;;5057857;28;20052;-75
2023/05/06 00:29:23;;;;;;;14.65;10.85;;;;;;;;;;5037071;28;20440;-74
2023/05/06 00:31:49;;;;;;;15.02;11.00;;;;;;;;;;5038542;28;20060;-74
2023/05/06 00:34:15;;;;;;;20.02;10.95;;;;;;;;;;5058200;28;20079;-74
2023/05/06 00:36:41;;;;;;;16.25;11.25;;;;;;;;;;5040540;28;20090;-74
2023/05/06 00:39:08;;;;;;;14.90;10.85;;;;;;;;;;5070631;28;20076;-74
2023/05/06 00:41:34;;;;;;;14.77;11.35;;;;;;;;;;5066418;28;20467;-74
2023/05/06 00:44:01;;;;;;;17.40;11.10;;;;;;;;;;5074655;28;20041;-74
2023/05/06 00:46:27;;;;;;;15.30;11.32;;;;;;;;;;5057118;28;20080;-74
2023/05/06 00:48:54;;;;;;;12.85;10.63;;;;;;;;;;5075640;28;20036;-74
2023/05/06 00:51:20;;;;;;;13.60;9.98;;;;;;;;;;5057473;28;20079;-74
2023/05/06 00:53:46;;;;;;;14.85;11.18;;;;;;;;;;5060050;28;20122;-74
2023/05/06 00:56:12;;;;;;;13.13;9.75;;;;;;;;;;5055376;28;20120;-74
2023/05/06 00:58:39;;;;;;;14.68;10.40;;;;;;;;;;5055037;28;20064;-74
2023/05/06 01:01:05;;;;;;;16.60;9.88;;;;;;;;;;5055111;28;20403;-74
2023/05/06 01:03:32;;;;;;;14.38;10.13;;;;;;;;;;5040246;28;20041;-74
2023/05/06 01:06:13;;;;;;;15.00;10.70;;;;;;;;;;5075121;28;20101;-74
2023/05/06 01:08:43;;;;;;;14.85;10.70;;;;;;;;;;5074470;28;20080;-74
2023/05/06 01:11:14;;;;;;;14.23;10.43;;;;;;;;;;5072105;28;20044;-74
2023/05/06 01:13:45;;;;;;;16.48;10.70;;;;;;;;;;5056969;28;20386;-74
2023/05/06 01:16:12;;;;;;;14.98;10.52;;;;;;;;;;5074371;28;20044;-74
2023/05/06 01:18:38;;;;;;;14.77;11.25;;;;;;;;;;5056668;28;20060;-74
2023/05/06 01:21:04;;;;;;;16.42;10.93;;;;;;;;;;5037066;28;20048;-74
2023/05/06 01:23:49;;;;;;;17.13;11.93;;;;;;;;;;5054624;28;20115;-74
2023/05/06 01:26:16;;;;;;;15.50;10.73;;;;;;;;;;5042296;28;20055;-74
2023/05/06 01:28:42;;;;;;;15.65;10.95;;;;;;;;;;5039920;28;20495;-74
2023/05/06 01:31:10;;;;;;;16.67;12.25;;;;;;;;;;5071862;28;20044;-74
2023/05/06 01:33:39;;;;;;;17.80;11.85;;;;;;;;;;5054527;28;20048;-74
2023/05/06 01:36:12;;;;;;;16.20;11.45;;;;;;;;;;5054609;28;20041;-74
2023/05/06 01:38:38;;;;;;;15.40;11.55;;;;;;;;;;5036750;28;20479;-74
2023/05/06 01:41:05;;;;;;;17.83;12.32;;;;;;;;;;5056877;28;20111;-74
2023/05/06 01:43:34;;;;;;;16.00;11.50;;;;;;;;;;5058321;28;20045;-74
2023/05/06 01:46:00;;;;;;;15.00;11.68;;;;;;;;;;5022600;28;20066;-74
2023/05/06 01:48:28;;;;;;;17.13;12.20;;;;;;;;;;5053460;28;20091;-74
2023/05/06 01:50:54;;;;;;;18.73;12.70;;;;;;;;;;5052106;28;20068;-74
2023/05/06 01:53:21;;;;;;;17.48;11.30;;;;;;;;;;5069931;28;20498;-74
2023/05/06 01:55:47;;;;;;;17.83;12.57;;;;;;;;;;5051985;28;20090;-74
2023/05/06 01:58:14;;;;;;;17.77;12.05;;;;;;;;;;5054410;28;20401;-74
2023/05/06 02:00:40;;;;;;;16.08;11.32;;;;;;;;;;5056111;28;20055;-74
2023/05/06 02:03:06;;;;;;;16.92;11.88;;;;;;;;;;5057101;28;20041;-74
2023/05/06 02:05:32;;;;;;;17.40;12.18;;;;;;;;;;5054987;28;20037;-74
2023/05/06 02:07:58;;;;;;;17.77;12.65;;;;;;;;;;5058536;28;20182;-74
2023/05/06 02:10:24;;;;;;;15.77;12.23;;;;;;;;;;5044865;28;20475;-74
2023/05/06 02:12:51;;;;;;;16.05;12.27;;;;;;;;;;5055825;28;20052;-74
2023/05/06 02:15:17;;;;;;;16.05;11.13;;;;;;;;;;5069822;28;20136;-74
2023/05/06 02:17:43;;;;;;;15.68;11.23;;;;;;;;;;5021140;28;20479;-74
2023/05/06 02:20:09;;;;;;;17.85;11.82;;;;;;;;;;5031015;28;20106;-74
2023/05/06 02:22:35;;;;;;;17.70;11.30;;;;;;;;;;5053739;28;20045;-74
2023/05/06 02:25:01;;;;;;;15.98;11.80;;;;;;;;;;5051766;28;20044;-74
2023/05/06 02:27:28;;;;;;;19.02;12.85;;;;;;;;;;5072283;28;20075;-74
2023/05/06 02:29:54;;;;;;;16.27;11.75;;;;;;;;;;5063353;28;20512;-74
2023/05/06 02:32:21;;;;;;;15.27;11.35;;;;;;;;;;5034939;28;20398;-74
2023/05/06 02:34:47;;;;;;;17.10;12.32;;;;;;;;;;5035793;28;20052;-74
2023/05/06 02:37:13;;;;;;;16.30;12.23;;;;;;;;;;5023365;28;20072;-74
2023/05/06 02:39:39;;;;;;;16.35;11.60;;;;;;;;;;5034743;28;20041;-74
2023/05/06 02:42:05;;;;;;;15.05;11.98;;;;;;;;;;5035769;28;20048;-74
2023/05/06 02:44:31;;;;;;;16.55;12.15;;;;;;;;;;5058347;28;20079;-74
2023/05/06 02:46:57;;;;;;;17.25;12.73;;;;;;;;;;5034554;28;20049;-74
2023/05/06 02:49:23;;;;;;;17.10;12.90;;;;;;;;;;5035464;28;20053;-74
2023/05/06 02:51:49;;;;;;;16.35;12.80;;;;;;;;;;5053514;28;20040;-74
2023/05/06 02:54:15;;;;;;;18.27;12.70;;;;;;;;;;5054259;28;20497;-74
2023/05/06 02:56:42;;;;;;;17.73;13.20;;;;;;;;;;5035700;28;20057;-74
2023/05/06 02:59:08;;;;;;;19.27;13.30;;;;;;;;;;5055332;28;20088;-74
2023/05/06 03:01:34;;;;;;;18.02;14.00;;;;;;;;;;5055133;28;20066;-74
2023/05/06 03:04:00;;;;;;;17.55;12.88;;;;;;;;;;5073509;28;20123;-74
2023/05/06 03:06:26;;;;;;;20.25;14.10;;;;;;;;;;5073148;28;20048;-74
2023/05/06 03:08:52;;;;;;;20.10;14.40;;;;;;;;;;5038331;28;20056;-74
2023/05/06 03:11:18;;;;;;;17.95;12.88;;;;;;;;;;5053577;28;20128;-74
2023/05/06 03:13:44;;;;;;;20.33;14.65;;;;;;;;;;5034075;28;20068;-74
2023/05/06 03:16:12;;;;;;;18.42;13.90;;;;;;;;;;5051445;28;20044;-74
2023/05/06 03:18:38;;;;;;;19.70;13.77;;;;;;;;;;5055107;28;20057;-74
2023/05/06 03:21:04;;;;;;;21.25;14.15;;;;;;;;;;5054640;28;20039;-74
2023/05/06 03:23:30;;;;;;;19.08;13.75;;;;;;;;;;5055029;28;20442;-74
2023/05/06 03:25:57;;;;;;;18.42;13.38;;;;;;;;;;5055196;28;20052;-74
2023/05/06 03:28:23;;;;;;;18.42;13.60;;;;;;;;;;5035319;28;20513;-74
2023/05/06 03:30:49;;;;;;;22.23;14.95;;;;;;;;;;5052651;28;20116;-74
2023/05/06 03:33:15;;;;;;;19.75;13.55;;;;;;;;;;5052787;28;20041;-74
2023/05/06 03:35:41;;;;;;;21.98;14.68;;;;;;;;;;5035546;28;20091;-74
2023/05/06 03:38:07;;;;;;;21.98;15.00;;;;;;;;;;5060837;28;20047;-74
2023/05/06 03:40:33;;;;;;;21.38;15.02;;;;;;;;;;5052069;28;20043;-74
2023/05/06 03:42:59;;;;;;;21.92;14.98;;;;;;;;;;5036421;28;20127;-74
2023/05/06 03:45:26;;;;;;;19.98;14.50;;;;;;;;;;5050128;28;20147;-74
2023/05/06 03:47:52;;;;;;;18.70;13.82;;;;;;;;;;5048123;28;20049;-74
2023/05/06 03:50:18;;;;;;;19.80;13.77;;;;;;;;;;5052481;28;20048;-74
2023/05/06 03:52:44;;;;;;;20.92;14.30;;;;;;;;;;5068564;28;20043;-74
2023/05/06 03:55:10;;;;;;;22.42;14.55;;;;;;;;;;5058376;28;20139;-74
2023/05/06 03:57:36;;;;;;;21.42;15.38;;;;;;;;;;5041885;28;20139;-74
2023/05/06 04:00:03;;;;;;;20.88;14.45;;;;;;;;;;5053554;28;20391;-74
2023/05/06 04:02:29;;;;;;;23.33;14.77;;;;;;;;;;5070016;28;20060;-74
2023/05/06 04:04:55;;;;;;;21.08;14.90;;;;;;;;;;5058310;28;20384;-74
2023/05/06 04:07:21;;;;;;;22.92;14.90;;;;;;;;;;5056899;28;20049;-74
2023/05/06 04:09:48;;;;;;;21.42;15.60;;;;;;;;;;5054498;28;20087;-74
2023/05/06 04:12:14;;;;;;;25.73;16.20;;;;;;;;;;5037620;28;20545;-74
2023/05/06 04:14:40;;;;;;;22.83;16.27;;;;;;;;;;5056164;28;20080;-74
2023/05/06 04:17:06;;;;;;;21.80;15.45;;;;;;;;;;5044881;28;20080;-74
2023/05/06 04:19:32;;;;;;;23.40;15.45;;;;;;;;;;5058331;28;20375;-74
2023/05/06 04:21:58;;;;;;;24.73;16.52;;;;;;;;;;5040655;28;20056;-74
2023/05/06 04:24:27;;;;;;;23.83;16.40;;;;;;;;;;5056587;28;20068;-74
2023/05/06 04:26:53;;;;;;;25.40;17.02;;;;;;;;;;5038044;28;20041;-74
2023/05/06 04:29:19;;;;;;;29.58;18.35;;;;;;;;;;5038371;28;20055;-74
2023/05/06 04:31:46;;;;;;;25.95;16.45;;;;;;;;;;5038297;28;20118;-72
2023/05/06 04:34:12;;;;;;;29.88;18.73;;;;;;;;;;5038177;28;20064;-72
2023/05/06 04:36:38;;;;;;;27.02;17.85;;;;;;;;;;5071650;28;20040;-72
2023/05/06 04:39:05;;;;;;;28.90;18.25;;;;;;;;;;5074913;28;20045;-72
2023/05/06 04:41:32;;;;;;;29.58;18.38;;;;;;;;;;5057137;28;20107;-72
2023/05/06 04:43:58;;;;;;;32.00;19.67;;;;;;;;;;5042615;28;20086;-72
2023/05/06 04:46:24;;;;;;;29.33;18.98;;;;;;;;;;5055752;28;20095;-72
2023/05/06 04:48:50;;;;;;;29.92;19.60;;;;;;;;;;5037341;28;20045;-72
2023/05/06 04:51:16;;;;;;;29.77;19.52;;;;;;;;;;5042329;28;20048;-72
2023/05/06 04:53:42;;;;;;;25.33;17.20;;;;;;;;;;5056822;28;20043;-72
2023/05/06 04:56:08;;;;;;;31.38;18.23;;;;;;;;;;5058838;28;20045;-72
2023/05/06 04:58:34;;;;;;;31.00;18.75;;;;;;;;;;5039038;28;20037;-73
2023/05/06 05:01:04;;;;;;;30.38;19.30;;;;;;;;;;5036740;28;20045;-73
2023/05/06 05:03:30;;;;;;;29.77;19.10;;;;;;;;;;5037286;28;20522;-73
2023/05/06 05:05:57;;;;;;;30.30;19.75;;;;;;;;;;5055069;28;20048;-73
2023/05/06 05:08:23;;;;;;;31.50;19.63;;;;;;;;;;5055371;28;20076;-73
2023/05/06 05:10:49;;;;;;;29.67;19.08;;;;;;;;;;5055222;28;20056;-73
2023/05/06 05:13:15;;;;;;;30.65;20.25;;;;;;;;;;5073529;28;20050;-74
2023/05/06 05:15:41;;;;;;;27.80;17.63;;;;;;;;;;5074582;28;20036;-74
2023/05/06 05:18:07;;;;;;;28.67;18.85;;;;;;;;;;5055479;28;20127;-74
2023/05/06 05:20:33;;;;;;;28.92;18.90;;;;;;;;;;5055505;28;20048;-74
2023/05/06 05:22:59;;;;;;;27.77;19.15;;;;;;;;;;5063999;28;20511;-74
2023/05/06 05:25:26;;;;;;;30.08;19.95;;;;;;;;;;5078906;28;20049;-74
2023/05/06 05:27:52;;;;;;;28.58;18.90;;;;;;;;;;5059739;28;20077;-74
2023/05/06 05:30:18;;;;;;;28.02;18.77;;;;;;;;;;5055147;28;20079;-74
2023/05/06 05:32:44;;;;;;;25.02;17.83;;;;;;;;;;5050223;28;20052;-74
2023/05/06 05:35:10;;;;;;;25.05;17.63;;;;;;;;;;5054544;28;20056;-74
2023/05/06 05:37:36;;;;;;;29.85;18.05;;;;;;;;;;5054660;28;20167;-74
2023/05/06 05:40:03;;;;;;;26.77;17.27;;;;;;;;;;5054726;28;20123;-74
2023/05/06 05:42:32;;;;;;;26.65;18.35;;;;;;;;;;5036643;28;20056;-75
2023/05/06 05:44:59;;;;;;;26.05;17.83;;;;;;;;;;5054341;28;20394;-75
2023/05/06 05:47:25;;;;;;;27.48;17.88;;;;;;;;;;5072264;28;20166;-75
2023/05/06 05:49:51;;;;;;;26.10;17.17;;;;;;;;;;5074273;28;20479;-75
2023/05/06 05:52:17;;;;;;;24.80;17.20;;;;;;;;;;5073678;28;20068;-75
2023/05/06 05:54:43;;;;;;;23.58;16.05;;;;;;;;;;5065537;28;20056;-75
2023/05/06 05:57:09;;;;;;;23.23;15.52;;;;;;;;;;5036297;28;20051;-75
2023/05/06 05:59:36;;;;;;;20.80;15.60;;;;;;;;;;5054642;28;20049;-75
2023/05/06 06:02:02;;;;;;;22.40;15.35;;;;;;;;;;5066169;28;20503;-75
2023/05/06 06:04:28;;;;;;;17.80;12.70;;;;;;;;;;5046260;28;20123;-75
2023/05/06 06:06:56;;;;;;;20.63;13.85;;;;;;;;;;5052229;28;20052;-75
2023/05/06 06:09:26;;;;;;;17.80;13.27;;;;;;;;;;5061447;28;20382;-75
2023/05/06 06:11:52;;;;;;;19.50;13.07;;;;;;;;;;5065034;28;20517;-75
2023/05/06 06:14:18;;;;;;;18.23;12.43;;;;;;;;;;5043919;28;20040;-75
2023/05/06 06:16:44;;;;;;;18.42;12.38;;;;;;;;;;5041976;28;20036;-75
2023/05/06 06:19:10;;;;;;;17.33;12.77;;;;;;;;;;5057980;28;20068;-75
2023/05/06 06:21:36;;;;;;;17.38;13.23;;;;;;;;;;5056348;28;20556;-75
2023/05/06 06:24:02;;;;;;;17.77;12.77;;;;;;;;;;5019985;28;20044;-75
2023/05/06 06:26:28;;;;;;;20.88;13.02;;;;;;;;;;5054325;28;20079;-75
2023/05/06 06:28:54;;;;;;;22.52;13.32;;;;;;;;;;5070877;28;20079;-75
2023/05/06 06:31:20;;;;;;;17.25;11.68;;;;;;;;;;5072614;28;20041;-76
2023/05/06 06:33:46;;;;;;;18.35;12.68;;;;;;;;;;5053604;28;20471;-75
2023/05/06 06:36:12;;;;;;;16.45;11.77;;;;;;;;;;5055340;28;20493;-77
2023/05/06 06:38:40;;;;;;;16.00;10.43;;;;;;;;;;5067016;28;20044;-75
2023/05/06 06:41:06;;;;;;;14.70;10.93;;;;;;;;;;5066414;28;20080;-76
2023/05/06 06:43:32;;;;;;;15.45;10.20;;;;;;;;;;5069087;28;20044;-75
2023/05/06 06:45:58;;;;;;;14.98;10.10;;;;;;;;;;5051364;28;20056;-75
2023/05/06 06:48:24;;;;;;;15.18;10.82;;;;;;;;;;5035548;28;20068;-75
2023/05/06 06:50:50;;;;;;;15.68;11.13;;;;;;;;;;5053529;28;20514;-76
2023/05/06 06:53:17;;;;;;;15.73;11.35;;;;;;;;;;5041180;28;20063;-75
2023/05/06 06:55:43;;;;;;;16.70;11.02;;;;;;;;;;5073359;28;20439;-76
2023/05/06 06:58:09;;;;;;;16.27;11.27;;;;;;;;;;5062672;28;20055;-76
2023/05/06 07:00:35;;;;;;;15.35;10.80;;;;;;;;;;5070195;28;20356;-75
2023/05/06 07:03:01;;;;;;;16.13;11.18;;;;;;;;;;5061184;28;20044;-75
2023/05/06 07:05:27;;;;;;;13.68;10.27;;;;;;;;;;5093728;28;20040;-75
2023/05/06 07:07:54;;;;;;;13.40;10.18;;;;;;;;;;5079836;28;20045;-75
2023/05/06 07:10:20;;;;;;;14.63;10.35;;;;;;;;;;5053786;28;20060;-75
2023/05/06 07:12:46;;;;;;;12.13;9.13;;;;;;;;;;5037033;28;20045;-75
2023/05/06 07:15:13;;;;;;;12.07;9.60;;;;;;;;;;5053244;28;20490;-75
2023/05/06 07:17:38;;;;;;;14.13;8.98;;;;;;;;;;5053439;28;20430;-75
2023/05/06 07:20:05;;;;;;;11.45;8.52;;;;;;;;;;5058169;28;20479;-75
2023/05/06 07:22:31;;;;;;;9.90;8.18;;;;;;;;;;5063656;28;20049;-75
2023/05/06 07:24:57;;;;;;;13.10;9.15;;;;;;;;;;5055015;28;20690;-75
2023/05/06 07:27:23;;;;;;;10.02;7.88;;;;;;;;;;5072330;28;20119;-75
2023/05/06 07:29:50;;;;;;;10.65;8.20;;;;;;;;;;5058430;28;20049;-75
2023/05/06 07:32:16;;;;;;;11.15;7.55;;;;;;;;;;5056388;28;20105;-75
2023/05/06 07:34:42;;;;;;;9.95;7.47;;;;;;;;;;5060067;28;20043;-75
2023/05/06 07:37:08;;;;;;;8.35;7.07;;;;;;;;;;5067034;28;20052;-75
2023/05/06 07:39:34;;;;;;;9.38;7.13;;;;;;;;;;5054384;28;20041;-75
2023/05/06 07:42:00;;;;;;;9.00;7.32;;;;;;;;;;5041109;28;20052;-75
2023/05/06 07:44:26;;;;;;;10.57;7.90;;;;;;;;;;5071709;28;20045;-75
2023/05/06 07:46:53;;;;;;;9.35;7.45;;;;;;;;;;5054964;28;20051;-77
2023/05/06 07:49:19;;;;;;;12.25;7.80;;;;;;;;;;5057970;28;20383;-76
2023/05/06 07:51:45;;;;;;;11.35;8.25;;;;;;;;;;5060853;28;20487;-76
2023/05/06 07:54:11;;;;;;;11.57;8.27;;;;;;;;;;5059754;28;20459;-76
2023/05/06 07:56:37;;;;;;;9.25;7.28;;;;;;;;;;5070116;28;20049;-76
2023/05/06 07:59:04;;;;;;;10.02;7.20;;;;;;;;;;5058862;28;20049;-76
2023/05/06 08:01:30;;;;;;;11.55;8.32;;;;;;;;;;5057496;28;20128;-76
2023/05/06 08:03:56;;;;;;;9.55;8.45;;;;;;;;;;5065703;28;20172;-76
2023/05/06 08:06:22;;;;;;;9.73;7.57;;;;;;;;;;5069991;28;20087;-76
2023/05/06 08:08:48;;;;;;;8.88;6.75;;;;;;;;;;5042176;28;20059;-76
2023/05/06 08:11:14;;;;;;;9.63;7.40;;;;;;;;;;5057733;28;20041;-75
2023/05/06 08:13:40;;;;;;;9.63;7.10;;;;;;;;;;5067269;28;20052;-76
2023/05/06 08:16:07;;;;;;;8.73;7.43;;;;;;;;;;5062983;28;20124;-76
2023/05/06 08:18:33;;;;;;;9.15;6.30;;;;;;;;;;5073846;28;20048;-76
2023/05/06 08:20:59;;;;;;;7.50;6.45;;;;;;;;;;5057383;28;20342;-76
2023/05/06 08:23:25;;;;;;;6.78;6.07;;;;;;;;;;5075463;28;20047;-76
2023/05/06 08:25:51;;;;;;;11.93;6.95;;;;;;;;;;5074674;28;20070;-76
2023/05/06 08:28:17;;;;;;;12.27;7.10;;;;;;;;;;5053346;28;20045;-76
2023/05/06 08:30:46;;;;;;;8.70;6.60;;;;;;;;;;5070231;28;20045;-76
2023/05/06 08:33:12;;;;;;;9.90;6.95;;;;;;;;;;5066848;28;20087;-76
2023/05/06 08:35:38;;;;;;;9.43;7.05;;;;;;;;;;5075840;28;20080;-76
2023/05/06 08:38:04;;;;;;;10.02;7.47;;;;;;;;;;5057487;28;20048;-76
2023/05/06 08:40:32;;;;;;;10.60;7.53;;;;;;;;;;5057298;28;20388;-76
2023/05/06 08:42:59;;;;;;;9.10;7.13;;;;;;;;;;5034477;28;20147;-76
2023/05/06 08:45:25;;;;;;;10.45;7.38;;;;;;;;;;5074054;28;20386;-76
2023/05/06 08:47:52;;;;;;;8.82;7.10;;;;;;;;;;5061216;28;20384;-76
2023/05/06 08:50:18;;;;;;;8.77;6.22;;;;;;;;;;5070572;28;20091;-75
2023/05/06 08:52:44;;;;;;;8.68;6.43;;;;;;;;;;5067687;28;20045;-75
2023/05/06 08:55:10;;;;;;;8.13;6.35;;;;;;;;;;5064782;28;20040;-78
2023/05/06 08:57:37;;;;;;;9.38;6.70;;;;;;;;;;5034432;28;20055;-76
2023/05/06 09:00:03;;;;;;;7.05;6.28;;;;;;;;;;5067759;28;20049;-78
2023/05/06 09:02:29;;;;;;;8.50;7.15;;;;;;;;;;5048749;28;20053;-75
2023/05/06 09:04:55;;;;;;;11.25;6.93;;;;;;;;;;5058670;28;20090;-76
2023/05/06 09:07:22;;;;;;;9.48;7.57;;;;;;;;;;5063616;28;20081;-76
2023/05/06 09:09:48;;;;;;;8.35;7.03;;;;;;;;;;5055354;28;20053;-76
2023/05/06 09:12:14;;;;;;;10.02;7.15;;;;;;;;;;5055161;28;20486;-76
2023/05/06 09:14:45;;;;;;;10.35;7.38;;;;;;;;;;5055405;28;20045;-76
2023/05/06 09:17:26;;;;;;;9.38;6.97;;;;;;;;;;5055332;28;20045;-76
2023/05/06 09:19:53;;;;;;;13.43;7.20;;;;;;;;;;5058816;28;20044;-76
2023/05/06 09:22:30;;;;;;;12.40;8.60;;;;;;;;;;5056729;28;20052;-77
2023/05/06 09:24:56;;;;;;;8.88;7.80;;;;;;;;;;5061184;28;20048;-77
2023/05/06 09:27:26;;;;;;;10.80;7.20;;;;;;;;;;5047904;28;20055;-75
2023/05/06 09:30:06;;;;;;;10.27;6.93;;;;;;;;;;5054759;28;20107;-76
2023/05/06 09:32:32;;;;;;;9.48;6.32;;;;;;;;;;5042729;28;20047;-78
2023/05/06 09:34:59;;;;;;;8.88;6.50;;;;;;;;;;5054596;28;20052;-76
2023/05/06 09:37:25;;;;;;;9.82;6.95;;;;;;;;;;5048623;28;20356;-76
2023/05/06 09:39:53;;;;;;;9.38;7.65;;;;;;;;;;5054197;28;20474;-78
2023/05/06 09:42:21;;;;;;;9.73;7.20;;;;;;;;;;5038511;28;20107;-76
2023/05/06 09:44:47;;;;;;;9.05;6.93;;;;;;;;;;5047531;28;20445;-76
2023/05/06 09:47:14;;;;;;;8.93;7.68;;;;;;;;;;5038109;28;20051;-76
2023/05/06 09:49:40;;;;;;;10.13;7.68;;;;;;;;;;5046497;28;20080;-76
2023/05/06 09:52:07;;;;;;;9.00;7.47;;;;;;;;;;5040491;28;20049;-76
2023/05/06 09:54:33;;;;;;;11.77;7.90;;;;;;;;;;5037638;28;20051;-76
2023/05/06 09:56:59;;;;;;;9.13;7.85;;;;;;;;;;5055828;28;20048;-76
2023/05/06 09:59:28;;;;;;;9.23;7.75;;;;;;;;;;5068878;28;20064;-76
2023/05/06 10:01:54;;;;;;;8.02;6.57;;;;;;;;;;5070519;28;20052;-75
2023/05/06 10:04:22;;;;;;;11.90;8.70;;;;;;;;;;5064359;28;20044;-75
2023/05/06 10:06:49;;;;;;;10.02;8.18;;;;;;;;;;5070228;28;20052;-76
2023/05/06 10:09:16;;;;;;;10.25;8.68;;;;;;;;;;5061203;28;20120;-76
2023/05/06 10:11:42;;;;;;;11.20;9.00;;;;;;;;;;5054167;28;20534;-75
2023/05/06 10:14:09;;;;;;;11.88;8.93;;;;;;;;;;5037297;28;20120;-76
2023/05/06 10:16:36;;;;;;;11.15;7.97;;;;;;;;;;5036739;28;20084;-76
2023/05/06 10:19:04;;;;;;;10.02;8.93;;;;;;;;;;5060603;28;20053;-76
2023/05/06 10:21:33;;;;;;;10.13;8.55;;;;;;;;;;5067055;28;20040;-76
2023/05/06 10:24:08;;;;;;;12.52;8.40;;;;;;;;;;5052449;28;20475;-76
2023/05/06 10:26:37;;;;;;;14.45;9.07;;;;;;;;;;5036108;28;20063;-76
2023/05/06 10:29:04;;;;;;;9.45;8.07;;;;;;;;;;5055792;28;20090;-76
2023/05/06 10:31:32;;;;;;;11.45;8.95;;;;;;;;;;5050031;28;20088;-76
2023/05/06 10:33:59;;;;;;;11.80;9.07;;;;;;;;;;5036092;28;20049;-76
2023/05/06 10:36:28;;;;;;;14.27;10.93;;;;;;;;;;5048397;28;20121;-76
2023/05/06 10:38:55;;;;;;;14.75;11.20;;;;;;;;;;5054117;28;20076;-76
2023/05/06 10:41:26;;;;;;;11.38;9.57;;;;;;;;;;5053483;28;20545;-76
2023/05/06 10:43:55;;;;;;;11.30;9.55;;;;;;;;;;5047336;28;20044;-76
2023/05/06 10:46:22;;;;;;;10.50;9.20;;;;;;;;;;5073414;28;20079;-76
2023/05/06 10:49:03;;;;;;;11.77;9.57;;;;;;;;;;5071682;28;20036;-76
2023/05/06 10:51:33;;;;;;;12.35;9.43;;;;;;;;;;5056507;28;20553;-76
2023/05/06 10:54:17;;;;;;;14.32;10.00;;;;;;;;;;5061136;28;20056;-76
2023/05/06 10:56:50;;;;;;;12.40;9.40;;;;;;;;;;5053514;28;20088;-76
2023/05/06 10:59:27;;;;;;;13.48;10.05;;;;;;;;;;5048288;28;20103;-76
2023/05/06 11:02:03;;;;;;;13.63;10.35;;;;;;;;;;5042268;28;20075;-76
2023/05/06 11:04:30;;;;;;;12.13;9.80;;;;;;;;;;5032505;28;20072;-76
2023/05/06 11:07:06;;;;;;;12.68;10.05;;;;;;;;;;5050496;28;20056;-76
2023/05/06 11:09:32;;;;;;;11.70;9.82;;;;;;;;;;5030877;28;20045;-76
2023/05/06 11:12:01;;;;;;;14.57;10.20;;;;;;;;;;5058001;28;20517;-76
2023/05/06 11:14:29;;;;;;;13.35;10.27;;;;;;;;;;5039573;28;20407;-76
2023/05/06 11:16:56;;;;;;;14.80;10.40;;;;;;;;;;5045070;28;20053;-76
2023/05/06 11:19:26;;;;;;;14.13;8.93;;;;;;;;;;5049543;28;20055;-76
2023/05/06 11:21:53;;;;;;;10.35;9.00;;;;;;;;;;5060509;28;20044;-76
2023/05/06 11:24:23;;;;;;;11.90;8.75;;;;;;;;;;5075699;28;20044;-76
2023/05/06 11:26:50;;;;;;;12.85;9.45;;;;;;;;;;5064639;28;20410;-76
2023/05/06 11:29:16;;;;;;;11.52;8.25;;;;;;;;;;5049178;28;20467;-77
2023/05/06 11:31:43;;;;;;;13.18;8.13;;;;;;;;;;5051907;28;20123;-76
2023/05/06 11:34:10;;;;;;;12.93;9.57;;;;;;;;;;5034451;28;20422;-75
2023/05/06 11:36:37;;;;;;;12.55;9.50;;;;;;;;;;5038831;28;20048;-75
2023/05/06 11:39:09;;;;;;;12.05;9.73;;;;;;;;;;5068508;28;20041;-76
2023/05/06 11:41:39;;;;;;;13.05;10.60;;;;;;;;;;5067997;28;20080;-76
2023/05/06 11:44:08;;;;;;;13.80;9.77;;;;;;;;;;5054697;28;20040;-76
2023/05/06 11:46:35;;;;;;;16.13;10.63;;;;;;;;;;5072621;28;20479;-75
2023/05/06 11:49:01;;;;;;;15.63;11.45;;;;;;;;;;5064140;28;20041;-75
2023/05/06 11:51:27;;;;;;;14.05;10.90;;;;;;;;;;5062805;28;20045;-75
2023/05/06 11:54:07;;;;;;;14.50;10.68;;;;;;;;;;5060134;28;20052;-75
2023/05/06 11:56:45;;;;;;;13.05;10.15;;;;;;;;;;5075771;28;20398;-75
2023/05/06 11:59:11;;;;;;;11.75;9.23;;;;;;;;;;5056946;28;20037;-75
2023/05/06 12:01:40;;;;;;;14.13;9.82;;;;;;;;;;5064456;28;20102;-75
2023/05/06 12:04:06;;;;;;;16.75;10.10;;;;;;;;;;5069177;28;20091;-75
2023/05/06 12:06:33;;;;;;;13.18;10.05;;;;;;;;;;5059728;28;20056;-75
2023/05/06 12:09:00;;;;;;;13.68;10.23;;;;;;;;;;5076688;28;20052;-75
2023/05/06 12:11:26;;;;;;;15.52;9.60;;;;;;;;;;5070133;28;20410;-75
2023/05/06 12:13:52;;;;;;;14.63;10.35;;;;;;;;;;5054302;28;20143;-75
2023/05/06 12:16:18;;;;;;;16.70;9.43;;;;;;;;;;5066100;28;20388;-75
2023/05/06 12:18:44;;;;;;;14.45;10.93;;;;;;;;;;5078910;28;20130;-75
2023/05/06 12:21:10;;;;;;;16.67;9.05;;;;;;;;;;5072891;28;20044;-75
2023/05/06 12:23:36;;;;;;;12.40;9.77;;;;;;;;;;5076606;28;20040;-75
2023/05/06 12:26:04;;;;;;;13.43;10.52;;;;;;;;;;5076209;28;20067;-75
2023/05/06 12:28:31;;;;;;;13.70;9.15;;;;;;;;;;5053648;28;20126;-75
2023/05/06 12:30:57;;;;;;;14.25;10.68;;;;;;;;;;5075542;28;20098;-75
2023/05/06 12:33:23;;;;;;;16.15;10.15;;;;;;;;;;5071981;28;20386;-75
2023/05/06 12:35:50;;;;;;;14.85;9.50;;;;;;;;;;5075766;28;20041;-75
2023/05/06 12:38:17;;;;;;;22.40;11.30;;;;;;;;;;5073740;28;20072;-75
2023/05/06 12:40:44;;;;;;;18.65;11.68;;;;;;;;;;5063348;28;20529;-75
2023/05/06 12:43:11;;;;;;;16.63;11.65;;;;;;;;;;5067522;28;20091;-75
2023/05/06 12:45:38;;;;;;;18.98;11.82;;;;;;;;;;5054808;28;20062;-75
2023/05/06 12:48:05;;;;;;;16.35;11.45;;;;;;;;;;5058180;28;20041;-75
2023/05/06 12:50:34;;;;;;;17.55;11.15;;;;;;;;;;5076005;28;20124;-75
2023/05/06 12:53:01;;;;;;;17.20;10.85;;;;;;;;;;5057098;28;20127;-76
2023/05/06 12:55:27;;;;;;;14.38;10.80;;;;;;;;;;5075902;28;20531;-75
2023/05/06 12:57:53;;;;;;;14.70;11.27;;;;;;;;;;5075651;28;20628;-76
2023/05/06 13:00:20;;;;;;;14.27;9.23;;;;;;;;;;5069537;28;20052;-75
2023/05/06 13:02:46;;;;;;;11.65;9.35;;;;;;;;;;5058571;28;20428;-75
2023/05/06 13:05:15;;;;;;;13.20;9.32;;;;;;;;;;5065709;28;20425;-75
2023/05/06 13:07:41;;;;;;;12.02;9.38;;;;;;;;;;5071960;28;20052;-75
2023/05/06 13:10:08;;;;;;;14.20;10.10;;;;;;;;;;5059792;28;20045;-76
2023/05/06 13:12:34;;;;;;;14.80;10.05;;;;;;;;;;5053007;28;20069;-76
2023/05/06 13:15:00;;;;;;;13.32;9.93;;;;;;;;;;5049159;28;20053;-75
2023/05/06 13:17:27;;;;;;;11.85;8.93;;;;;;;;;;5044550;28;20102;-73
2023/05/06 13:19:56;;;;;;;13.57;8.55;;;;;;;;;;5069899;28;20093;-73
2023/05/06 13:22:23;;;;;;;10.77;7.68;;;;;;;;;;5059961;28;20041;-73
2023/05/06 13:24:49;;;;;;;10.38;6.97;;;;;;;;;;5068037;28;20040;-73
2023/05/06 13:27:15;;;;;;;9.73;6.88;;;;;;;;;;5069293;28;20048;-73
2023/05/06 13:29:41;;;;;;;8.13;6.50;;;;;;;;;;5052956;28;20041;-73
2023/05/06 13:32:07;;;;;;;8.27;6.93;;;;;;;;;;5053598;28;20040;-73
2023/05/06 13:34:33;;;;;;;9.65;6.90;;;;;;;;;;5047465;28;20080;-73
2023/05/06 13:36:59;;;;;;;8.65;6.47;;;;;;;;;;5043540;28;20045;-74
2023/05/06 13:39:25;;;;;;;9.32;7.20;;;;;;;;;;5055759;28;20048;-73
2023/05/06 13:41:52;;;;;;;11.45;8.45;;;;;;;;;;5064138;28;20094;-73
2023/05/06 13:44:19;;;;;;;11.13;7.85;;;;;;;;;;5052980;28;20096;-75
2023/05/06 13:46:45;;;;;;;11.43;7.35;;;;;;;;;;5066729;28;20436;-74
2023/05/06 13:49:12;;;;;;;9.55;7.28;;;;;;;;;;5060466;28;20056;-76
2023/05/06 13:51:38;;;;;;;11.05;7.43;;;;;;;;;;5057278;28;20072;-76
2023/05/06 13:54:04;;;;;;;10.73;7.35;;;;;;;;;;5075292;28;20049;-75
2023/05/06 13:56:30;;;;;;;8.48;6.50;;;;;;;;;;5067035;28;20102;-76
2023/05/06 13:58:56;;;;;;;8.85;6.18;;;;;;;;;;5038516;28;20502;-74
2023/05/06 14:01:23;;;;;;;9.75;7.10;;;;;;;;;;5041683;28;20049;-74
2023/05/06 14:03:49;;;;;;;7.80;7.00;;;;;;;;;;5050989;28;20048;-75
2023/05/06 14:06:15;;;;;;;8.55;6.57;;;;;;;;;;5047212;28;20510;-74
2023/05/06 14:08:42;;;;;;;10.05;6.85;;;;;;;;;;5046138;28;20166;-74
2023/05/06 14:11:09;;;;;;;12.35;6.93;;;;;;;;;;5050681;28;20071;-74
2023/05/06 14:13:35;;;;;;;9.55;6.13;;;;;;;;;;5061945;28;20688;-73
2023/05/06 14:16:01;;;;;;;7.95;6.38;;;;;;;;;;5055915;28;20387;-77
2023/05/06 14:18:28;;;;;;;9.07;6.68;;;;;;;;;;5070730;28;20048;-75
2023/05/06 14:20:55;;;;;;;8.73;7.00;;;;;;;;;;5058143;28;20045;-75